createdAt,value
2023-05-14T05:06:08.398Z,9.29
2023-05-14T05:11:12.739Z,9.59
2023-05-14T05:16:15.924Z,9.83
2023-05-14T05:21:19.031Z,9.98
2023-05-14T05:26:23.676Z,10.19
2023-05-14T05:31:26.729Z,10.31
2023-05-14T05:36:29.946Z,10.36
2023-05-14T05:41:34.327Z,10.51
2023-05-14T05:46:37.503Z,10.78
2023-05-14T05:51:41.070Z,11.04
2023-05-14T05:56:45.516Z,11.12
2023-05-14T06:01:48.638Z,11.25
2023-05-14T06:06:51.690Z,11.80
2023-05-14T06:11:56.417Z,12.15
2023-05-14T06:16:59.631Z,12.10
2023-05-14T06:22:02.955Z,12.23
2023-05-14T06:27:08.095Z,12.16
2023-05-14T06:32:14.133Z,12.41
2023-05-14T06:37:17.669Z,13.51
2023-05-14T06:42:22.339Z,14.83
2023-05-14T06:47:26.218Z,15.88
2023-05-14T06:52:29.511Z,16.38
2023-05-14T06:57:35.297Z,16.95
2023-05-14T07:02:38.388Z,16.60
2023-05-14T07:07:41.421Z,17.09
2023-05-14T07:12:46.250Z,17.88
2023-05-14T07:17:49.531Z,18.32
2023-05-14T07:22:53.852Z,18.67
2023-05-14T07:27:58.233Z,19.02
2023-05-14T07:33:01.282Z,20.26
2023-05-14T07:38:05.747Z,20.17
2023-05-14T07:43:11.336Z,21.09
2023-05-14T07:48:15.130Z,20.61
2023-05-14T07:53:18.635Z,20.76
2023-05-14T07:58:23.819Z,20.84
2023-05-14T08:03:27.012Z,20.78
2023-05-14T08:08:30.232Z,21.54
2023-05-14T08:13:34.978Z,21.03
2023-05-14T08:18:38.279Z,21.28
2023-05-14T08:23:41.783Z,21.85
2023-05-14T08:28:46.137Z,20.67
2023-05-14T08:33:49.585Z,20.11
2023-05-14T08:38:52.675Z,19.71
2023-05-14T08:44:07.576Z,20.02
2023-05-14T08:49:21.095Z,21.08
2023-05-14T08:54:26.209Z,21.61
2023-05-14T08:59:31.123Z,20.36
2023-05-14T09:04:35.293Z,21.25
2023-05-14T09:09:39.026Z,19.26
2023-05-14T09:14:43.791Z,19.17
2023-05-14T09:19:49.069Z,18.86
2023-05-14T09:25:09.714Z,18.99
2023-05-14T09:30:20.573Z,19.24
2023-05-14T09:35:26.584Z,18.59
2023-05-14T09:40:30.142Z,17.86
2023-05-14T09:45:36.540Z,17.81
2023-05-14T09:50:43.193Z,17.51
2023-05-14T09:55:46.829Z,17.40
2023-05-14T10:00:52.254Z,17.43
2023-05-14T10:05:57.395Z,18.03
2023-05-14T10:11:04.390Z,17.96
2023-05-14T10:16:13.796Z,18.59
2023-05-14T10:21:21.801Z,18.33
2023-05-14T10:26:26.206Z,18.93
2023-05-14T10:31:49.580Z,20.03
2023-05-14T10:36:52.751Z,19.36
2023-05-14T10:41:55.903Z,20.78
2023-05-14T10:47:01.042Z,20.58
2023-05-14T10:52:04.271Z,20.52
2023-05-14T10:57:12.774Z,20.45
2023-05-14T11:02:22.741Z,21.35
2023-05-14T11:07:30.597Z,21.97
2023-05-14T11:12:34.112Z,21.99
2023-05-14T11:17:40.282Z,23.71
2023-05-14T11:22:44.165Z,23.48
2023-05-14T11:27:48.004Z,21.94
2023-05-14T11:32:52.876Z,21.90
2023-05-14T11:37:56.830Z,22.35
2023-05-14T11:43:01.202Z,21.07
2023-05-14T11:48:13.054Z,20.27
2023-05-14T11:53:19.863Z,21.65
2023-05-14T11:58:23.045Z,20.48
2023-05-14T12:03:30.144Z,21.02
2023-05-14T12:08:34.250Z,22.31
2023-05-14T12:13:38.318Z,23.02
2023-05-14T12:18:44.262Z,23.11
2023-05-14T12:23:47.519Z,21.80
2023-05-14T12:28:50.732Z,22.08
2023-05-14T12:33:55.543Z,21.99
2023-05-14T12:39:01.134Z,21.72
2023-05-14T12:44:06.086Z,22.53
2023-05-14T12:49:11.122Z,21.80
2023-05-14T12:54:15.762Z,23.58
2023-05-14T12:59:18.993Z,23.17
2023-05-14T13:04:23.792Z,23.20
2023-05-14T13:09:28.157Z,22.41
2023-05-14T13:14:31.601Z,22.32
2023-05-14T13:19:36.163Z,22.20
2023-05-14T13:24:39.752Z,22.32
2023-05-14T13:29:43.289Z,22.32
2023-05-14T13:34:48.184Z,21.84
2023-05-14T13:39:51.698Z,23.09
2023-05-14T13:44:56.277Z,23.82
2023-05-14T13:50:01.091Z,24.14
2023-05-14T13:55:04.894Z,23.50
2023-05-14T14:00:09.851Z,23.50
2023-05-14T14:05:14.685Z,21.59
2023-05-14T14:10:18.471Z,20.97
2023-05-14T14:15:21.736Z,20.25
2023-05-14T14:20:26.550Z,19.99
2023-05-14T14:25:29.737Z,20.23
2023-05-14T14:30:33.848Z,20.90
2023-05-14T14:35:38.511Z,21.28
2023-05-14T14:40:42.042Z,21.60
2023-05-14T14:45:48.180Z,21.73
2023-05-14T14:50:54.171Z,22.02
2023-05-14T14:55:58.196Z,22.04
2023-05-14T15:01:01.979Z,20.99
2023-05-14T15:06:06.786Z,18.50
2023-05-14T15:11:10.244Z,16.89
2023-05-14T15:16:13.765Z,16.71
2023-05-14T15:21:18.315Z,16.29
2023-05-14T15:26:21.906Z,16.26
2023-05-14T15:31:25.421Z,16.23
2023-05-14T15:36:29.957Z,16.26
2023-05-14T15:41:34.329Z,16.38
2023-05-14T15:46:38.201Z,16.45
2023-05-14T15:51:43.032Z,16.53
2023-05-14T15:56:46.502Z,17.01
2023-05-14T16:01:50.184Z,17.27
2023-05-14T16:06:54.989Z,17.23
2023-05-14T16:11:58.222Z,17.36
2023-05-14T16:17:02.361Z,17.58
2023-05-14T16:22:07.015Z,17.58
2023-05-14T16:27:10.164Z,17.04
2023-05-14T16:32:13.650Z,16.79
2023-05-14T16:37:19.807Z,16.43
2023-05-14T16:42:23.233Z,15.99
2023-05-14T16:47:26.525Z,15.78
2023-05-14T16:52:31.582Z,15.58
2023-05-14T16:57:35.174Z,15.47
2023-05-14T17:02:38.327Z,15.30
2023-05-14T17:07:43.044Z,15.24
2023-05-14T17:12:46.196Z,15.09
2023-05-14T17:17:49.216Z,14.86
2023-05-14T17:22:53.802Z,14.77
2023-05-14T17:27:56.849Z,14.72
2023-05-14T17:32:59.997Z,14.46
2023-05-14T17:38:04.510Z,14.49
2023-05-14T17:43:08.408Z,14.45
2023-05-14T17:48:11.885Z,14.47
2023-05-14T17:53:16.401Z,14.50
2023-05-14T17:58:19.530Z,14.50
2023-05-14T18:03:22.583Z,14.40
2023-05-14T18:08:27.042Z,14.23
2023-05-14T18:13:30.099Z,14.17
2023-05-14T18:18:33.184Z,14.08
2023-05-14T18:23:37.568Z,14.05
2023-05-14T18:28:40.922Z,13.94
2023-05-14T18:33:44.038Z,13.86
2023-05-14T18:38:48.459Z,13.83
2023-05-14T18:43:51.521Z,13.84
2023-05-14T18:48:54.600Z,13.79
2023-05-14T18:53:59.005Z,13.82
2023-05-14T18:59:02.034Z,13.89
2023-05-14T19:04:06.426Z,13.90
2023-05-14T19:09:11.193Z,13.92
2023-05-14T19:14:14.212Z,13.89
2023-05-14T19:19:17.321Z,13.92
2023-05-14T19:24:21.762Z,13.93
2023-05-14T19:29:24.866Z,13.87
2023-05-14T19:34:27.979Z,13.78
2023-05-14T19:39:32.593Z,13.75
2023-05-14T19:44:36.052Z,13.80
2023-05-14T19:49:39.085Z,13.81
2023-05-14T19:54:43.446Z,13.78
2023-05-14T19:59:46.544Z,13.78
2023-05-14T20:04:49.972Z,13.73
2023-05-14T20:09:54.334Z,13.65
2023-05-14T20:14:57.360Z,13.65
2023-05-14T20:20:00.727Z,13.59
2023-05-14T20:25:05.728Z,13.50
2023-05-14T20:30:09.748Z,13.42
2023-05-14T20:35:12.797Z,13.40
2023-05-14T20:40:17.214Z,13.33
2023-05-14T20:45:20.274Z,13.17
2023-05-14T20:50:23.442Z,13.03
2023-05-14T20:55:28.169Z,12.86
2023-05-14T21:00:32.499Z,12.63
2023-05-14T21:05:36.068Z,12.44
2023-05-14T21:10:40.890Z,12.27
2023-05-14T21:15:44.040Z,12.17
2023-05-14T21:20:47.449Z,12.02
2023-05-14T21:25:54.580Z,12.02
2023-05-14T21:30:57.990Z,11.94
2023-05-14T21:36:01.396Z,11.79
2023-05-14T21:41:06.282Z,11.60
2023-05-14T21:46:10.251Z,11.45
2023-05-14T21:51:13.375Z,11.41
2023-05-14T21:56:18.311Z,11.39
2023-05-14T22:01:21.961Z,11.33
2023-05-14T22:06:25.168Z,11.38
2023-05-14T22:11:29.620Z,11.40
2023-05-14T22:16:33.382Z,11.45
2023-05-14T22:21:36.477Z,11.42
2023-05-14T22:26:41.370Z,11.39
2023-05-14T22:31:44.588Z,11.28
2023-05-14T22:36:48.252Z,11.21
2023-05-14T22:41:55.384Z,11.20
2023-05-14T22:46:59.136Z,11.18
2023-05-14T22:52:02.326Z,11.24
2023-05-14T22:57:07.531Z,11.23
2023-05-14T23:02:11.309Z,11.15
2023-05-14T23:07:15.198Z,11.06
2023-05-14T23:12:19.945Z,10.91
2023-05-14T23:17:23.102Z,10.87
2023-05-14T23:22:26.726Z,10.80
2023-05-14T23:27:31.190Z,10.77
2023-05-14T23:32:34.380Z,10.72
2023-05-14T23:37:41.880Z,10.74
2023-05-14T23:42:46.871Z,10.74
2023-05-14T23:47:50.422Z,10.77
2023-05-14T23:52:54.472Z,10.61
2023-05-14T23:57:59.379Z,10.55
